createdAt,value
2023-02-12T00:01:28.891Z,109.70
2023-02-12T00:03:57.399Z,106.55
2023-02-12T00:06:25.190Z,98.18
2023-02-12T00:08:54.932Z,104.57
2023-02-12T00:11:24.886Z,106.05
2023-02-12T00:13:53.032Z,100.50
2023-02-12T00:16:23.815Z,97.40
2023-02-12T00:18:56.029Z,95.75
2023-02-12T00:23:51.048Z,105.38
2023-02-12T00:26:20.067Z,91.85
2023-02-12T00:28:50.435Z,118.20
2023-02-12T00:31:27.474Z,102.47
2023-02-12T00:33:57.888Z,91.32
2023-02-12T00:36:27.437Z,93.95
2023-02-12T00:38:56.011Z,109.47
2023-02-12T00:41:25.748Z,105.88
2023-02-12T00:43:54.109Z,92.20
2023-02-12T00:46:21.650Z,100.05
2023-02-12T00:48:49.789Z,103.72
2023-02-12T00:51:20.477Z,108.05
2023-02-12T00:53:47.979Z,90.68
2023-02-12T00:56:15.654Z,98.25
2023-02-12T00:58:44.044Z,100.40
2023-02-12T01:01:11.833Z,89.47
2023-02-12T01:03:39.255Z,89.72
2023-02-12T01:06:07.057Z,90.88
2023-02-12T01:08:34.891Z,90.90
2023-02-12T01:11:04.614Z,96.05
2023-02-12T01:13:34.426Z,99.65
2023-02-12T01:16:08.879Z,97.85
2023-02-12T01:18:37.978Z,86.70
2023-02-12T01:21:15.178Z,89.68
2023-02-12T01:23:43.615Z,89.93
2023-02-12T01:26:15.068Z,90.95
2023-02-12T01:28:44.132Z,82.78
2023-02-12T01:31:14.954Z,89.07
2023-02-12T01:33:43.051Z,98.30
2023-02-12T01:36:11.659Z,92.60
2023-02-12T01:38:39.133Z,95.30
2023-02-12T01:41:12.571Z,85.53
2023-02-12T01:43:41.130Z,88.82
2023-02-12T01:46:12.938Z,92.78
2023-02-12T01:48:47.260Z,86.25
2023-02-12T01:51:20.328Z,84.22
2023-02-12T01:53:53.557Z,105.30
2023-02-12T01:56:23.780Z,98.28
2023-02-12T01:58:53.095Z,96.60
2023-02-12T02:01:24.169Z,90.68
2023-02-12T02:06:28.004Z,106.93
2023-02-12T02:08:56.971Z,87.32
2023-02-12T02:11:42.844Z,96.95
2023-02-12T02:14:28.748Z,80.85
2023-02-12T02:17:00.469Z,93.13
2023-02-12T02:20:05.841Z,89.22
2023-02-12T02:22:55.079Z,99.88
2023-02-12T02:25:40.725Z,95.35
2023-02-12T02:28:26.738Z,92.00
2023-02-12T02:31:00.841Z,100.43
2023-02-12T02:33:37.211Z,97.70
2023-02-12T02:36:26.363Z,108.18
2023-02-12T02:38:59.901Z,100.25
2023-02-12T02:41:37.008Z,101.97
2023-02-12T02:44:13.571Z,115.25
2023-02-12T02:46:48.892Z,112.30
2023-02-12T02:49:22.969Z,122.47
2023-02-12T02:51:55.661Z,133.82
2023-02-12T02:54:41.948Z,123.00
2023-02-12T02:57:30.412Z,128.85
2023-02-12T03:00:20.440Z,135.40
2023-02-12T03:03:00.535Z,133.90
2023-02-12T03:05:34.823Z,127.57
2023-02-12T03:08:12.576Z,126.13
2023-02-12T03:10:44.868Z,125.00
2023-02-12T03:13:18.963Z,120.55
2023-02-12T03:16:04.440Z,122.18
2023-02-12T03:18:47.006Z,106.47
2023-02-12T03:21:20.520Z,109.53
2023-02-12T03:24:00.868Z,111.45
2023-02-12T03:26:47.259Z,119.70
2023-02-12T03:29:15.048Z,120.38
2023-02-12T03:31:58.742Z,120.05
2023-02-12T03:35:04.189Z,111.22
2023-02-12T03:37:43.812Z,108.45
2023-02-12T03:40:35.590Z,117.07
2023-02-12T03:43:06.449Z,122.97
2023-02-12T03:45:42.903Z,117.97
2023-02-12T03:48:13.552Z,117.00
2023-02-12T03:50:51.863Z,109.47
2023-02-12T03:53:19.777Z,120.43
2023-02-12T03:55:51.745Z,106.47
2023-02-12T03:58:23.831Z,120.47
2023-02-12T04:03:19.138Z,113.53
2023-02-12T04:05:46.579Z,116.70
2023-02-12T04:08:14.960Z,117.85
2023-02-12T04:11:04.188Z,120.03
2023-02-12T04:13:45.286Z,117.53
2023-02-12T04:16:31.111Z,107.85
2023-02-12T04:18:59.180Z,119.43
2023-02-12T04:21:35.367Z,111.32
2023-02-12T04:24:14.473Z,114.68
2023-02-12T04:26:58.011Z,113.65
2023-02-12T04:29:37.575Z,113.13
2023-02-12T04:32:43.999Z,118.63
2023-02-12T04:35:22.113Z,114.38
2023-02-12T04:37:59.071Z,118.05
2023-02-12T04:40:26.989Z,108.72
2023-02-12T04:42:54.833Z,113.13
2023-02-12T04:45:33.919Z,110.60
2023-02-12T04:48:01.684Z,116.78
2023-02-12T04:50:42.702Z,114.43
2023-02-12T04:53:11.099Z,116.97
2023-02-12T04:55:38.592Z,105.47
2023-02-12T04:58:06.221Z,109.75
2023-02-12T05:00:33.717Z,108.95
2023-02-12T05:03:01.343Z,108.80
2023-02-12T05:05:28.892Z,103.32
2023-02-12T05:07:56.342Z,114.57
2023-02-12T05:10:23.769Z,104.68
2023-02-12T05:12:54.441Z,110.97
2023-02-12T05:15:22.432Z,106.32
2023-02-12T05:17:49.860Z,113.95
2023-02-12T05:20:17.382Z,103.05
2023-02-12T05:22:44.872Z,106.93
2023-02-12T05:25:12.340Z,104.07
2023-02-12T05:27:39.728Z,111.53
2023-02-12T05:30:09.560Z,113.90
2023-02-12T05:32:36.989Z,103.82
2023-02-12T05:35:04.756Z,114.72
2023-02-12T05:37:36.200Z,110.90
2023-02-12T05:40:08.808Z,103.28
2023-02-12T05:42:36.379Z,98.63
2023-02-12T05:45:04.022Z,106.28
2023-02-12T05:47:31.440Z,120.95
2023-02-12T05:49:58.844Z,103.18
2023-02-12T05:52:26.242Z,110.18
2023-02-12T05:54:53.635Z,110.50
2023-02-12T05:57:21.122Z,102.72
2023-02-12T05:59:48.552Z,112.90
2023-02-12T06:02:16.001Z,102.28
2023-02-12T06:04:43.437Z,111.00
2023-02-12T06:07:10.836Z,103.22
2023-02-12T06:09:38.279Z,108.47
2023-02-12T06:12:05.758Z,113.13
2023-02-12T06:14:33.254Z,116.18
2023-02-12T06:17:00.662Z,106.50
2023-02-12T06:19:28.114Z,106.90
2023-02-12T06:21:55.616Z,107.88
2023-02-12T06:24:23.109Z,99.75
2023-02-12T06:26:51.713Z,106.13
2023-02-12T06:29:20.094Z,104.43
2023-02-12T06:31:47.994Z,122.72
2023-02-12T06:34:18.111Z,104.55
2023-02-12T06:36:46.583Z,106.45
2023-02-12T06:39:15.455Z,105.40
2023-02-12T06:41:43.962Z,103.60
2023-02-12T06:44:12.508Z,107.68
2023-02-12T06:46:40.186Z,104.25
2023-02-12T06:49:07.745Z,103.43
2023-02-12T06:51:36.446Z,106.35
2023-02-12T06:54:04.143Z,106.32
2023-02-12T06:56:31.574Z,111.72
2023-02-12T06:59:01.249Z,125.22
2023-02-12T07:01:30.105Z,148.05
2023-02-12T07:04:02.891Z,122.47
2023-02-12T07:06:36.097Z,128.98
2023-02-12T07:09:05.097Z,140.98
2023-02-12T07:11:37.588Z,116.45
2023-02-12T07:14:06.282Z,108.75
2023-02-12T07:16:33.784Z,104.07
2023-02-12T07:19:01.327Z,99.65
2023-02-12T07:21:28.774Z,99.78
2023-02-12T07:23:56.265Z,106.15
2023-02-12T07:26:23.983Z,94.07
2023-02-12T07:28:51.827Z,95.20
2023-02-12T07:31:24.092Z,87.20
2023-02-12T07:33:56.847Z,87.55
2023-02-12T07:36:25.628Z,81.28
2023-02-12T07:38:54.524Z,91.78
2023-02-12T07:41:22.990Z,75.65
2023-02-12T07:43:55.544Z,77.40
2023-02-12T07:46:32.409Z,74.25
2023-02-12T07:49:05.445Z,75.65
2023-02-12T07:51:35.199Z,72.22
2023-02-12T07:54:03.327Z,71.07
2023-02-12T07:56:35.323Z,74.20
2023-02-12T07:59:11.013Z,76.70
2023-02-12T08:01:40.999Z,61.97
2023-02-12T08:04:13.171Z,65.20
2023-02-12T08:06:43.811Z,64.32
2023-02-12T08:09:13.864Z,66.18
2023-02-12T08:11:43.478Z,66.78
2023-02-12T08:14:13.540Z,57.00
2023-02-12T08:16:42.737Z,72.80
2023-02-12T08:19:19.517Z,77.05
2023-02-12T08:21:52.952Z,77.22
2023-02-12T08:24:22.166Z,74.68
2023-02-12T08:26:50.237Z,79.40
2023-02-12T08:29:20.668Z,62.70
2023-02-12T08:31:49.794Z,60.63
2023-02-12T08:34:23.621Z,57.78
2023-02-12T08:36:54.176Z,61.80
2023-02-12T08:39:22.741Z,58.65
2023-02-12T08:41:50.835Z,56.47
2023-02-12T08:44:18.791Z,56.60
2023-02-12T08:46:48.604Z,50.40
2023-02-12T08:49:21.933Z,56.05
2023-02-12T08:51:52.236Z,55.60
2023-02-12T08:54:22.794Z,56.50
2023-02-12T08:56:50.584Z,56.05
2023-02-12T08:59:18.403Z,62.05
2023-02-12T09:01:45.909Z,59.78
2023-02-12T09:04:18.090Z,61.83
2023-02-12T09:09:14.932Z,57.75
2023-02-12T09:11:42.983Z,60.95
2023-02-12T09:14:14.214Z,56.95
2023-02-12T09:16:41.933Z,52.08
2023-02-12T09:19:12.475Z,59.88
2023-02-12T09:21:39.997Z,50.00
2023-02-12T09:24:10.834Z,57.30
2023-02-12T09:26:39.724Z,49.15
2023-02-12T09:29:07.317Z,56.25
2023-02-12T09:31:34.982Z,53.63
2023-02-12T09:34:05.221Z,55.53
2023-02-12T09:36:33.351Z,49.33
2023-02-12T09:39:00.874Z,53.28
2023-02-12T09:41:48.364Z,48.33
2023-02-12T09:44:36.261Z,51.55
2023-02-12T09:47:30.132Z,48.72
2023-02-12T09:50:15.639Z,42.55
2023-02-12T09:52:44.439Z,45.53
2023-02-12T09:55:17.006Z,57.47
2023-02-12T09:57:46.200Z,42.78
2023-02-12T10:00:31.596Z,51.28
2023-02-12T10:03:05.886Z,43.80
2023-02-12T10:05:51.005Z,54.10
2023-02-12T10:08:43.747Z,44.95
2023-02-12T10:11:25.398Z,47.75
2023-02-12T10:14:34.880Z,49.07
2023-02-12T10:17:08.119Z,45.17
2023-02-12T10:20:01.317Z,41.63
2023-02-12T10:22:28.741Z,45.15
2023-02-12T10:25:24.006Z,47.65
2023-02-12T10:27:57.102Z,49.20
2023-02-12T10:30:51.355Z,46.40
2023-02-12T10:33:36.520Z,43.88
2023-02-12T10:36:08.311Z,42.53
2023-02-12T10:38:40.265Z,58.85
2023-02-12T10:41:08.267Z,54.42
2023-02-12T10:43:35.765Z,54.97
2023-02-12T10:46:03.274Z,59.08
2023-02-12T10:48:35.528Z,53.92
2023-02-12T10:51:12.468Z,56.63
2023-02-12T10:53:42.245Z,55.78
2023-02-12T10:56:17.307Z,55.67
2023-02-12T10:58:53.829Z,54.20
2023-02-12T11:01:29.288Z,50.50
2023-02-12T11:04:00.792Z,54.97
2023-02-12T11:06:33.335Z,58.80
2023-02-12T11:09:00.821Z,60.05
2023-02-12T11:11:37.051Z,56.58
2023-02-12T11:14:10.257Z,56.38
2023-02-12T11:16:46.655Z,62.55
2023-02-12T11:19:21.805Z,64.55
2023-02-12T11:21:50.438Z,64.50
2023-02-12T11:24:26.777Z,59.45
2023-02-12T11:27:11.890Z,61.17
2023-02-12T11:29:40.380Z,62.30
2023-02-12T11:32:15.174Z,67.35
2023-02-12T11:34:42.680Z,67.25
2023-02-12T11:37:19.709Z,67.93
2023-02-12T11:39:49.221Z,65.20
2023-02-12T11:42:23.342Z,65.32
2023-02-12T11:44:59.652Z,56.40
2023-02-12T11:47:30.828Z,56.17
2023-02-12T11:50:22.905Z,61.38
2023-02-12T11:52:52.579Z,63.83
2023-02-12T11:55:33.406Z,64.72
2023-02-12T11:58:20.672Z,59.22
2023-02-12T12:01:22.329Z,61.97
2023-02-12T12:04:28.912Z,60.90
2023-02-12T12:07:26.189Z,63.45
2023-02-12T12:10:05.733Z,63.72
2023-02-12T12:12:41.816Z,58.75
2023-02-12T12:15:51.320Z,61.33
2023-02-12T12:18:40.375Z,56.38
2023-02-12T12:21:19.060Z,57.17
2023-02-12T12:23:52.155Z,60.35
2023-02-12T12:26:26.028Z,56.95
2023-02-12T12:29:13.996Z,57.72
2023-02-12T12:31:46.154Z,60.28
2023-02-12T12:34:17.237Z,59.40
2023-02-12T12:36:59.669Z,63.47
2023-02-12T12:39:58.039Z,60.70
2023-02-12T12:42:46.744Z,63.95
2023-02-12T12:45:31.904Z,61.97
2023-02-12T12:48:11.210Z,62.80
2023-02-12T12:50:56.619Z,66.35
2023-02-12T12:53:29.824Z,69.95
2023-02-12T12:55:59.982Z,63.17
2023-02-12T12:58:52.246Z,65.93
2023-02-12T13:01:27.125Z,64.32
2023-02-12T13:04:21.785Z,66.78
2023-02-12T13:07:34.269Z,57.95
2023-02-12T13:10:32.100Z,48.17
2023-02-12T13:13:20.263Z,60.83
2023-02-12T13:15:50.482Z,50.75
2023-02-12T13:18:27.288Z,47.13
2023-02-12T13:20:57.512Z,41.80
2023-02-12T13:23:38.872Z,44.85
2023-02-12T13:26:19.224Z,38.92
2023-02-12T13:29:18.616Z,35.92
2023-02-12T13:31:53.012Z,32.80
2023-02-12T13:34:21.856Z,26.55
2023-02-12T13:36:50.020Z,29.30
2023-02-12T13:39:29.640Z,33.05
2023-02-12T13:42:11.705Z,29.48
2023-02-12T13:45:16.477Z,28.10
2023-02-12T13:48:21.960Z,25.73
2023-02-12T13:51:18.102Z,35.83
2023-02-12T13:53:59.451Z,31.05
2023-02-12T13:56:38.485Z,26.55
2023-02-12T13:59:32.093Z,28.23
2023-02-12T14:02:25.989Z,27.25
2023-02-12T14:04:53.348Z,25.98
2023-02-12T14:07:21.736Z,25.13
2023-02-12T14:09:51.903Z,23.65
2023-02-12T14:12:25.337Z,26.48
2023-02-12T14:15:29.299Z,26.88
2023-02-12T14:18:02.681Z,25.95
2023-02-12T14:20:33.250Z,26.58
2023-02-12T14:23:21.368Z,31.10
2023-02-12T14:26:26.760Z,27.35
2023-02-12T14:28:59.054Z,29.45
2023-02-12T14:34:16.143Z,31.83
2023-02-12T14:36:45.965Z,31.77
2023-02-12T14:39:19.427Z,33.05
2023-02-12T14:42:09.555Z,27.85
2023-02-12T14:44:44.600Z,34.13
2023-02-12T14:47:29.724Z,32.05
2023-02-12T14:50:12.728Z,33.70
2023-02-12T14:52:43.748Z,30.42
2023-02-12T14:55:27.808Z,36.58
2023-02-12T14:57:59.205Z,31.02
2023-02-12T15:00:35.252Z,35.53
2023-02-12T15:03:19.928Z,30.70
2023-02-12T15:05:56.750Z,33.65
2023-02-12T15:08:51.872Z,32.42
2023-02-12T15:11:43.712Z,32.42
2023-02-12T15:14:37.013Z,35.30
2023-02-12T15:17:25.077Z,40.88
2023-02-12T15:20:02.713Z,35.83
2023-02-12T15:22:33.085Z,33.05
2023-02-12T15:25:25.931Z,39.05
2023-02-12T15:28:00.590Z,39.38
2023-02-12T15:30:35.622Z,39.42
2023-02-12T15:33:06.676Z,39.72
2023-02-12T15:35:40.192Z,37.45
2023-02-12T15:38:08.208Z,33.22
2023-02-12T15:40:35.659Z,34.50
2023-02-12T15:43:05.844Z,38.83
2023-02-12T15:45:35.552Z,34.00
2023-02-12T15:48:15.851Z,34.75
2023-02-12T15:50:59.746Z,36.30
2023-02-12T15:53:30.686Z,37.67
2023-02-12T15:56:00.554Z,38.20
2023-02-12T15:58:29.575Z,39.05
2023-02-12T16:01:02.965Z,37.90
2023-02-12T16:03:34.024Z,33.58
2023-02-12T16:06:06.386Z,31.80
2023-02-12T16:11:13.730Z,33.58
2023-02-12T16:13:46.884Z,31.55
2023-02-12T16:16:17.657Z,28.70
2023-02-12T16:18:46.634Z,37.78
2023-02-12T16:21:20.573Z,33.92
2023-02-12T16:23:50.484Z,31.45
2023-02-12T16:26:24.326Z,35.47
2023-02-12T16:28:55.038Z,30.77
2023-02-12T16:31:23.581Z,33.83
2023-02-12T16:33:55.592Z,40.30
2023-02-12T16:36:22.910Z,40.72
2023-02-12T16:38:53.333Z,33.83
2023-02-12T16:41:25.427Z,36.28
2023-02-12T16:44:01.645Z,34.67
2023-02-12T16:46:34.524Z,35.72
2023-02-12T16:49:02.780Z,35.10
2023-02-12T16:51:32.462Z,37.45
2023-02-12T16:54:23.945Z,34.83
2023-02-12T16:56:52.216Z,38.08
2023-02-12T16:59:19.631Z,35.45
2023-02-12T17:02:06.806Z,34.50
2023-02-12T17:04:34.176Z,35.42
2023-02-12T17:07:01.941Z,35.30
2023-02-12T17:09:31.985Z,36.85
2023-02-12T17:11:59.381Z,36.53
2023-02-12T17:14:26.828Z,36.40
2023-02-12T17:16:54.353Z,36.20
2023-02-12T17:19:22.898Z,34.75
2023-02-12T17:21:51.947Z,33.50
2023-02-12T17:24:26.197Z,34.60
2023-02-12T17:26:54.417Z,35.58
2023-02-12T17:29:24.590Z,42.10
2023-02-12T17:31:53.937Z,36.05
2023-02-12T17:34:22.602Z,34.72
2023-02-12T17:36:50.443Z,37.40
2023-02-12T17:39:18.194Z,35.42
2023-02-12T17:41:46.723Z,36.72
2023-02-12T17:44:15.131Z,40.45
2023-02-12T17:46:43.154Z,28.92
2023-02-12T17:49:10.569Z,30.92
2023-02-12T17:51:38.316Z,34.30
2023-02-12T17:54:05.790Z,32.03
2023-02-12T17:56:33.352Z,31.23
2023-02-12T17:59:01.632Z,33.55
2023-02-12T18:01:29.149Z,33.95
2023-02-12T18:03:58.826Z,36.15
2023-02-12T18:06:29.216Z,32.25
2023-02-12T18:08:58.475Z,29.38
2023-02-12T18:11:27.755Z,32.45
2023-02-12T18:13:56.717Z,35.53
2023-02-12T18:16:26.515Z,40.47
2023-02-12T18:18:54.201Z,39.03
2023-02-12T18:21:21.641Z,35.33
2023-02-12T18:23:49.182Z,33.42
2023-02-12T18:26:18.326Z,34.17
2023-02-12T18:28:46.344Z,32.53
2023-02-12T18:31:14.301Z,32.53
2023-02-12T18:33:41.973Z,28.13
2023-02-12T18:36:14.836Z,25.52
2023-02-12T18:38:43.084Z,28.92
2023-02-12T18:41:19.472Z,53.97
2023-02-12T18:43:47.018Z,40.20
2023-02-12T18:46:15.838Z,48.72
2023-02-12T18:48:43.647Z,50.10
2023-02-12T18:51:15.134Z,114.57
2023-02-12T18:53:43.303Z,179.57
2023-02-12T18:56:12.419Z,196.55
2023-02-12T18:58:43.491Z,52.00
2023-02-12T19:01:19.307Z,36.90
2023-02-12T19:03:49.439Z,238.70
2023-02-12T19:06:17.020Z,131.40
2023-02-12T19:08:44.396Z,75.05
2023-02-12T19:11:14.783Z,57.75
2023-02-12T19:13:43.902Z,100.05
2023-02-12T19:16:16.781Z,55.85
2023-02-12T19:18:44.468Z,41.80
2023-02-12T19:21:14.542Z,55.72
2023-02-12T19:23:42.702Z,79.40
2023-02-12T19:26:12.749Z,41.33
2023-02-12T19:28:40.557Z,105.50
2023-02-12T19:31:16.367Z,72.68
2023-02-12T19:33:44.897Z,61.10
2023-02-12T19:36:15.240Z,48.95
2023-02-12T19:38:46.324Z,171.43
2023-02-12T19:41:16.786Z,83.85
2023-02-12T19:43:44.569Z,49.88
2023-02-12T19:46:21.795Z,50.45
2023-02-12T19:48:49.616Z,34.35
2023-02-12T19:51:19.544Z,66.60
2023-02-12T19:53:48.479Z,36.15
2023-02-12T19:56:16.462Z,41.20
2023-02-12T19:58:44.834Z,49.58
2023-02-12T20:01:16.374Z,40.78
2023-02-12T20:03:44.972Z,47.67
2023-02-12T20:06:19.624Z,36.40
2023-02-12T20:08:47.030Z,32.85
2023-02-12T20:11:17.858Z,109.88
2023-02-12T20:13:48.685Z,52.60
2023-02-12T20:16:19.420Z,119.53
2023-02-12T20:18:49.017Z,87.45
2023-02-12T20:21:28.428Z,77.38
2023-02-12T20:23:57.253Z,59.50
2023-02-12T20:26:25.197Z,107.72
2023-02-12T20:28:52.823Z,134.10
2023-02-12T20:31:26.219Z,52.95
2023-02-12T20:33:59.792Z,52.75
2023-02-12T20:36:30.267Z,55.83
2023-02-12T20:38:58.368Z,50.28
2023-02-12T20:41:27.331Z,44.58
2023-02-12T20:43:55.838Z,50.67
2023-02-12T20:46:24.956Z,77.75
2023-02-12T20:48:54.308Z,76.93
2023-02-12T20:51:25.273Z,78.65
2023-02-12T20:53:54.141Z,79.68
2023-02-12T20:56:27.009Z,63.50
2023-02-12T20:58:54.928Z,49.40
2023-02-12T21:01:34.789Z,62.42
2023-02-12T21:04:14.210Z,83.88
2023-02-12T21:06:42.146Z,61.03
2023-02-12T21:09:11.638Z,110.22
2023-02-12T21:11:41.009Z,101.05
2023-02-12T21:14:21.831Z,90.70
2023-02-12T21:16:50.812Z,72.03
2023-02-12T21:19:18.926Z,73.55
2023-02-12T21:21:46.463Z,79.60
2023-02-12T21:24:16.910Z,47.15
2023-02-12T21:26:44.637Z,62.58
2023-02-12T21:29:12.422Z,51.50
2023-02-12T21:31:42.341Z,51.72
2023-02-12T21:34:17.506Z,55.45
2023-02-12T21:36:46.554Z,35.97
2023-02-12T21:39:27.541Z,40.10
2023-02-12T21:42:00.945Z,41.88
2023-02-12T21:44:29.811Z,32.75
2023-02-12T21:47:00.436Z,42.22
2023-02-12T21:49:28.640Z,33.13
2023-02-12T21:52:02.258Z,30.50
2023-02-12T21:54:33.914Z,35.78
2023-02-12T21:57:01.699Z,37.97
2023-02-12T21:59:38.056Z,41.90
2023-02-12T22:02:06.920Z,38.25
2023-02-12T22:04:34.469Z,31.60
2023-02-12T22:07:12.086Z,31.15
2023-02-12T22:09:42.725Z,32.30
2023-02-12T22:12:10.305Z,31.30
2023-02-12T22:14:38.948Z,33.30
2023-02-12T22:17:18.660Z,36.65
2023-02-12T22:19:46.890Z,35.17
2023-02-12T22:22:14.619Z,41.22
2023-02-12T22:24:49.099Z,37.53
2023-02-12T22:27:17.014Z,30.90
2023-02-12T22:29:53.075Z,27.75
2023-02-12T22:32:26.951Z,28.10
2023-02-12T22:34:57.241Z,33.53
2023-02-12T22:37:28.391Z,25.95
2023-02-12T22:39:56.143Z,26.95
2023-02-12T22:42:35.844Z,26.70
2023-02-12T22:45:08.690Z,26.13
2023-02-12T22:47:36.146Z,28.15
2023-02-12T22:50:03.962Z,24.83
2023-02-12T22:52:31.975Z,22.70
2023-02-12T22:54:59.362Z,23.90
2023-02-12T22:57:26.821Z,19.65
2023-02-12T22:59:55.155Z,23.50
2023-02-12T23:02:22.638Z,21.48
2023-02-12T23:04:50.015Z,16.92
2023-02-12T23:07:17.382Z,25.42
2023-02-12T23:09:44.778Z,18.73
2023-02-12T23:12:12.315Z,22.30
2023-02-12T23:14:39.736Z,16.58
2023-02-12T23:17:07.165Z,19.73
2023-02-12T23:19:34.572Z,19.52
2023-02-12T23:22:02.224Z,23.85
2023-02-12T23:24:29.582Z,17.90
2023-02-12T23:26:57.008Z,18.60
2023-02-12T23:29:24.405Z,21.70
2023-02-12T23:31:51.784Z,16.25
2023-02-12T23:34:19.222Z,14.15
2023-02-12T23:36:46.683Z,15.68
2023-02-12T23:39:14.253Z,17.00
2023-02-12T23:41:41.804Z,14.27
2023-02-12T23:44:09.721Z,14.77
2023-02-12T23:46:37.519Z,15.25
2023-02-12T23:49:05.692Z,15.15
2023-02-12T23:51:33.667Z,15.75
2023-02-12T23:54:02.702Z,15.57
2023-02-12T23:56:30.215Z,14.93
2023-02-12T23:58:57.832Z,11.38
